Time;durP1;ratioP1;P1;durP2;ratioP2;P2;SDS_P1;SDS_P2;PMS_P1;PMS_P2;Temp;Humidity;BMP_temperature;BMP_pressure;BME280_temperature;BME280_humidity;BME280_pressure;Samples;Min_cycle;Max_cycle;Signal;HPM_P1;HPM_P2
2023/03/19 00:00:10;;;;;;;2.27;1.50;;;;;;;10.27;54.18;95311.84;6100847;23;20164;-84
2023/03/19 00:02:36;;;;;;;3.10;1.33;;;;;;;10.32;53.30;95306.97;6125525;23;20207;-84
2023/03/19 00:05:02;;;;;;;3.00;1.50;;;;;;;10.39;52.93;95301.03;6100593;23;20207;-83
2023/03/19 00:07:27;;;;;;;2.43;1.40;;;;;;;10.44;52.53;95298.81;6124674;23;20248;-84
2023/03/19 00:09:53;;;;;;;3.53;1.70;;;;;;;10.50;52.42;95294.78;6125939;23;20152;-84
2023/03/19 00:12:18;;;;;;;3.40;1.50;;;;;;;10.47;53.13;95292.50;6125466;23;20155;-84
2023/03/19 00:14:44;;;;;;;3.43;1.40;;;;;;;10.44;53.65;95293.63;6125001;23;20156;-86
2023/03/19 00:17:10;;;;;;;2.07;1.40;;;;;;;10.45;53.80;95297.84;6125317;23;20203;-85
2023/03/19 00:19:35;;;;;;;2.20;1.70;;;;;;;10.35;55.40;95293.72;6119110;23;20156;-85
2023/03/19 00:22:05;;;;;;;2.20;1.47;;;;;;;10.32;55.47;95296.59;6109509;23;20171;-85
2023/03/19 00:24:30;;;;;;;3.90;1.80;;;;;;;10.28;56.34;95282.31;6154597;23;20180;-85
2023/03/19 00:26:56;;;;;;;2.23;1.60;;;;;;;10.30;56.43;95301.13;6104373;23;20186;-85
2023/03/19 00:29:22;;;;;;;4.67;2.40;;;;;;;10.37;56.75;95297.78;6129691;23;20211;-85
2023/03/19 00:31:48;;;;;;;2.97;1.63;;;;;;;10.39;57.64;95292.44;6105631;23;20163;-84
2023/03/19 00:34:17;;;;;;;4.03;1.57;;;;;;;10.42;58.27;95286.94;6105634;23;20152;-83
2023/03/19 00:36:42;;;;;;;3.00;1.60;;;;;;;10.42;58.95;95294.72;6104984;23;20195;-85
2023/03/19 00:39:07;;;;;;;2.40;1.43;;;;;;;10.39;59.37;95295.84;6129237;23;20152;-83
2023/03/19 00:41:33;;;;;;;2.87;1.67;;;;;;;10.32;60.32;95300.00;6104518;23;20159;-85
2023/03/19 00:43:58;;;;;;;3.90;1.50;;;;;;;10.29;61.97;95307.28;6104384;23;20531;-84
2023/03/19 00:46:24;;;;;;;3.80;1.40;;;;;;;10.22;63.99;95304.47;6104103;23;20167;-84
2023/03/19 00:48:52;;;;;;;1.70;1.60;;;;;;;10.20;63.35;95317.59;6153559;23;20160;-84
2023/03/19 00:51:18;;;;;;;4.47;1.70;;;;;;;10.25;62.70;95309.41;6103761;23;20167;-85
2023/03/19 00:53:43;;;;;;;4.23;2.73;;;;;;;10.27;62.50;95310.06;6102951;23;20156;-83
2023/03/19 00:56:11;;;;;;;2.67;1.77;;;;;;;10.28;62.91;95308.28;6102250;23;20155;-84
2023/03/19 00:58:37;;;;;;;4.13;1.70;;;;;;;10.28;63.87;95316.06;6103019;23;20204;-84
2023/03/19 01:01:04;;;;;;;2.67;1.90;;;;;;;10.25;65.39;95319.78;6103229;23;20159;-85
2023/03/19 01:03:29;;;;;;;3.73;1.53;;;;;;;10.16;66.84;95315.47;6102002;23;20187;-83
2023/03/19 01:05:54;;;;;;;4.47;1.70;;;;;;;10.14;65.97;95318.19;6102131;23;20242;-84
2023/03/19 01:08:22;;;;;;;1.57;1.30;;;;;;;10.24;63.35;95331.09;6126998;23;20172;-83
2023/03/19 01:10:48;;;;;;;6.23;1.80;;;;;;;10.13;63.42;95333.91;6126970;23;20160;-83
2023/03/19 01:13:13;;;;;;;4.57;1.50;;;;;;;10.12;65.40;95345.25;6102517;23;20163;-83
2023/03/19 01:15:40;;;;;;;4.13;1.47;;;;;;;10.32;66.96;95343.31;6101991;23;20164;-85
2023/03/19 01:18:07;;;;;;;5.03;1.93;;;;;;;10.24;68.60;95348.44;6126520;23;20259;-84
2023/03/19 01:20:33;;;;;;;4.50;1.60;;;;;;;10.01;66.98;95348.06;6102465;23;20694;-82
2023/03/19 01:22:58;;;;;;;3.30;1.60;;;;;;;10.07;66.11;95347.47;6101766;23;20255;-84
2023/03/19 01:25:23;;;;;;;2.33;1.47;;;;;;;10.09;66.11;95348.16;6101247;23;20618;-83
2023/03/19 01:27:50;;;;;;;3.20;1.60;;;;;;;10.13;66.33;95347.69;6101803;23;20716;-84
2023/03/19 01:30:15;;;;;;;2.90;2.00;;;;;;;10.06;66.26;95338.06;6102530;23;20481;-83
2023/03/19 01:32:40;;;;;;;3.80;2.10;;;;;;;10.08;66.40;95344.75;6102216;23;20167;-83
2023/03/19 01:35:06;;;;;;;4.23;2.23;;;;;;;9.99;66.79;95348.22;6101575;23;20166;-83
2023/03/19 01:37:31;;;;;;;2.97;2.00;;;;;;;9.88;66.58;95351.84;6126931;23;20180;-82
2023/03/19 01:39:57;;;;;;;4.53;2.00;;;;;;;9.81;66.56;95357.78;6126535;23;20195;-83
2023/03/19 01:42:22;;;;;;;4.13;1.97;;;;;;;9.63;66.62;95365.56;6102530;23;20159;-85
2023/03/19 01:44:48;;;;;;;3.10;2.07;;;;;;;9.67;66.59;95364.28;6102335;23;20171;-84
2023/03/19 01:47:17;;;;;;;3.23;1.93;;;;;;;9.50;67.19;95365.88;6102095;23;20191;-82
2023/03/19 01:49:46;;;;;;;3.37;2.10;;;;;;;9.47;67.68;95370.56;6102646;23;20162;-84
2023/03/19 01:52:12;;;;;;;4.13;2.10;;;;;;;9.56;67.35;95372.28;6126773;23;20237;-84
2023/03/19 01:54:38;;;;;;;3.17;2.17;;;;;;;9.54;67.66;95367.25;6102300;23;20160;-84
2023/03/19 01:57:08;;;;;;;3.10;2.03;;;;;;;9.47;68.27;95368.78;6127105;23;20219;-84
2023/03/19 01:59:37;;;;;;;3.83;1.80;;;;;;;9.54;68.16;95375.03;6126931;23;20166;-83
2023/03/19 02:02:29;;;;;;;3.63;2.00;;;;;;;9.36;68.57;95368.94;6101682;23;20163;-83
2023/03/19 02:05:16;;;;;;;4.33;2.03;;;;;;;9.48;68.74;95364.41;6125499;23;20164;-83
2023/03/19 02:07:43;;;;;;;5.00;1.80;;;;;;;9.55;68.56;95365.47;6126606;23;20175;-84
2023/03/19 02:10:11;;;;;;;5.20;1.70;;;;;;;9.45;68.69;95359.50;6102381;23;20634;-83
2023/03/19 02:12:37;;;;;;;4.00;2.00;;;;;;;9.45;69.21;95359.50;6125617;23;20164;-83
2023/03/19 02:15:02;;;;;;;4.03;1.97;;;;;;;9.30;69.52;95365.19;6101538;23;20250;-84
2023/03/19 02:17:28;;;;;;;1.90;1.40;;;;;;;9.38;68.28;95361.88;6126598;23;20180;-84
2023/03/19 02:20:00;;;;;;;3.80;1.40;;;;;;;9.44;68.25;95361.28;6126243;23;20218;-83
2023/03/19 02:22:27;;;;;;;3.27;1.60;;;;;;;9.41;68.79;95358.16;6126592;23;20163;-84
2023/03/19 02:25:01;;;;;;;2.90;1.40;;;;;;;9.39;68.55;95358.31;6101643;23;20208;-83
2023/03/19 02:27:26;;;;;;;4.47;1.50;;;;;;;9.35;68.60;95356.97;6102241;23;20262;-82
2023/03/19 02:29:51;;;;;;;3.13;1.40;;;;;;;9.32;68.77;95359.84;6101932;23;20167;-83
2023/03/19 02:32:17;;;;;;;4.43;1.50;;;;;;;9.32;68.68;95360.66;6101677;23;20179;-84
2023/03/19 02:34:43;;;;;;;2.97;1.50;;;;;;;9.28;68.81;95363.69;6101102;23;20168;-83
2023/03/19 02:37:18;;;;;;;2.83;1.40;;;;;;;9.23;69.10;95358.13;6099879;23;20175;-84
2023/03/19 02:39:57;;;;;;;2.17;1.50;;;;;;;9.22;69.00;95351.31;6125875;23;20211;-82
2023/03/19 02:42:23;;;;;;;1.57;1.10;;;;;;;9.15;69.71;95345.88;6101563;23;20192;-82
2023/03/19 02:44:49;;;;;;;1.83;1.50;;;;;;;9.14;69.73;95344.25;6101170;23;20163;-83
2023/03/19 02:47:15;;;;;;;2.33;1.30;;;;;;;9.14;69.80;95349.44;6101347;23;20183;-84
2023/03/19 02:49:40;;;;;;;3.63;1.30;;;;;;;9.11;70.09;95348.91;6101873;23;20183;-84
2023/03/19 02:52:06;;;;;;;3.40;1.40;;;;;;;9.10;69.91;95353.28;6125857;23;20159;-83
2023/03/19 02:54:31;;;;;;;3.60;1.37;;;;;;;9.08;69.86;95353.41;6102144;23;20156;-85
2023/03/19 02:56:56;;;;;;;2.00;1.30;;;;;;;9.12;69.46;95353.94;6121263;23;20248;-85
2023/03/19 02:59:22;;;;;;;3.23;1.20;;;;;;;9.15;69.26;95351.06;6129890;23;20180;-84
2023/03/19 03:01:47;;;;;;;2.07;1.20;;;;;;;9.18;69.54;95355.94;6103600;23;20214;-82
2023/03/19 03:04:15;;;;;;;2.23;1.17;;;;;;;9.23;69.18;95343.38;6103194;23;20184;-84
2023/03/19 03:06:40;;;;;;;1.83;1.20;;;;;;;9.22;68.98;95346.94;6127146;23;20175;-83
2023/03/19 03:09:06;;;;;;;3.27;1.30;;;;;;;9.16;68.95;95350.09;6102899;23;20163;-83
2023/03/19 03:11:31;;;;;;;1.40;1.20;;;;;;;9.16;69.04;95350.09;6127204;23;20160;-83
2023/03/19 03:13:56;;;;;;;2.13;1.10;;;;;;;9.13;69.37;95350.41;6102164;23;20673;-83
2023/03/19 03:16:22;;;;;;;1.90;1.30;;;;;;;9.09;69.59;95347.25;6126797;23;20152;-83
2023/03/19 03:18:47;;;;;;;1.60;1.20;;;;;;;9.14;69.85;95354.63;6126435;23;20476;-83
2023/03/19 03:21:13;;;;;;;1.97;1.33;;;;;;;9.11;69.62;95348.91;6102704;23;20160;-84
2023/03/19 03:23:38;;;;;;;3.13;1.30;;;;;;;9.13;69.01;95352.97;6102160;23;20193;-84
2023/03/19 03:26:05;;;;;;;2.10;1.20;;;;;;;9.19;68.94;95356.75;6101603;23;20159;-83
2023/03/19 03:28:31;;;;;;;2.23;1.20;;;;;;;9.18;68.83;95361.13;6125908;23;20306;-84
2023/03/19 03:31:01;;;;;;;3.73;1.40;;;;;;;9.22;68.71;95365.06;6101169;23;20160;-83
2023/03/19 03:33:26;;;;;;;2.13;1.30;;;;;;;9.19;68.37;95357.59;6077136;23;20198;-83
2023/03/19 03:35:51;;;;;;;2.53;1.30;;;;;;;9.19;69.28;95369.72;6125134;23;20605;-83
2023/03/19 03:38:17;;;;;;;1.60;1.17;;;;;;;9.18;69.11;95366.31;6100064;23;20234;-83
2023/03/19 03:40:42;;;;;;;2.50;1.30;;;;;;;9.19;69.67;95364.53;6100950;23;20159;-83
2023/03/19 03:43:08;;;;;;;1.80;1.20;;;;;;;9.20;69.38;95367.00;6100494;23;20681;-83
2023/03/19 03:45:34;;;;;;;3.73;1.37;;;;;;;9.23;69.45;95376.25;6125654;23;20183;-82
2023/03/19 03:47:59;;;;;;;4.13;1.70;;;;;;;9.23;69.79;95377.06;6100331;23;20184;-83
2023/03/19 03:50:24;;;;;;;3.73;1.30;;;;;;;9.27;69.28;95380.19;6100229;23;20159;-83
2023/03/19 03:52:50;;;;;;;2.40;1.40;;;;;;;9.27;69.11;95383.59;6101011;23;20529;-84
2023/03/19 03:55:15;;;;;;;2.63;1.40;;;;;;;9.34;68.63;95381.25;6099582;23;20611;-82
2023/03/19 03:57:40;;;;;;;2.13;1.30;;;;;;;9.38;68.36;95382.59;6100306;23;20179;-83
2023/03/19 04:00:06;;;;;;;2.00;1.20;;;;;;;9.44;67.42;95370.81;6100649;23;20160;-82
2023/03/19 04:02:32;;;;;;;3.30;1.50;;;;;;;9.45;67.21;95370.66;6076098;23;20175;-82
2023/03/19 04:04:57;;;;;;;1.60;1.40;;;;;;;9.50;67.35;95371.06;6126984;23;20433;-83
2023/03/19 04:07:22;;;;;;;2.80;1.50;;;;;;;9.48;68.39;95373.00;6102505;23;20184;-83
2023/03/19 04:09:49;;;;;;;4.13;1.50;;;;;;;9.49;69.39;95377.22;6102979;23;20164;-83
2023/03/19 04:12:14;;;;;;;2.47;1.63;;;;;;;9.52;70.59;95374.31;6127001;23;20163;-83
2023/03/19 04:14:40;;;;;;;2.87;1.50;;;;;;;9.49;70.66;95368.63;6101862;23;20633;-83
2023/03/19 04:17:05;;;;;;;2.23;1.43;;;;;;;9.50;70.57;95381.44;6102402;23;20199;-83
2023/03/19 04:19:31;;;;;;;3.63;1.90;;;;;;;9.41;71.09;95384.09;6102214;23;20167;-84
2023/03/19 04:21:57;;;;;;;3.83;2.03;;;;;;;9.39;70.40;95386.81;6126293;23;20191;-84
2023/03/19 04:24:22;;;;;;;3.07;1.50;;;;;;;9.45;69.91;95390.59;6110336;23;20180;-83
2023/03/19 04:26:48;;;;;;;2.47;1.53;;;;;;;9.44;70.10;95381.19;6101374;23;20190;-84
2023/03/19 04:29:14;;;;;;;3.33;1.50;;;;;;;9.35;70.98;95386.28;6126410;23;20163;-84
2023/03/19 04:31:39;;;;;;;3.07;1.87;;;;;;;9.31;71.47;95392.72;6102760;23;20615;-83
2023/03/19 04:34:05;;;;;;;3.10;1.90;;;;;;;9.20;71.33;95395.50;6126771;23;20147;-84
2023/03/19 04:36:31;;;;;;;3.07;1.90;;;;;;;9.24;70.90;95396.84;6101565;23;20202;-83
2023/03/19 04:38:56;;;;;;;2.80;1.83;;;;;;;9.29;70.56;95397.25;6125756;23;20646;-83
2023/03/19 04:41:21;;;;;;;2.70;2.03;;;;;;;9.25;70.99;95392.47;6127099;23;20682;-83
2023/03/19 04:43:47;;;;;;;2.33;1.80;;;;;;;9.24;70.71;95396.84;6128205;23;20180;-83
2023/03/19 04:46:12;;;;;;;2.07;1.57;;;;;;;9.16;70.39;95403.69;6151514;23;20174;-82
2023/03/19 04:48:38;;;;;;;3.87;2.37;;;;;;;9.31;69.83;95395.31;6127321;23;20167;-84
2023/03/19 04:51:07;;;;;;;2.77;1.80;;;;;;;9.35;69.86;95398.41;6129051;23;20160;-84
2023/03/19 04:53:33;;;;;;;2.40;2.00;;;;;;;9.29;70.47;95402.41;6103189;23;20160;-84
2023/03/19 04:55:58;;;;;;;4.90;1.93;;;;;;;9.31;70.89;95408.25;6102383;23;20245;-83
2023/03/19 04:58:23;;;;;;;4.70;1.60;;;;;;;9.35;70.49;95408.78;6126879;23;20175;-83
2023/03/19 05:00:49;;;;;;;2.23;1.73;;;;;;;9.22;71.23;95409.13;6102320;23;20472;-83
2023/03/19 05:03:14;;;;;;;3.10;1.80;;;;;;;9.25;70.92;95408.81;6126206;23;20513;-84
2023/03/19 05:05:40;;;;;;;4.07;2.03;;;;;;;9.25;71.69;95408.81;6100889;23;20295;-83
2023/03/19 05:08:06;;;;;;;2.07;1.80;;;;;;;9.26;71.38;95409.63;6125831;23;20172;-83
2023/03/19 05:10:32;;;;;;;2.37;1.60;;;;;;;9.25;71.72;95403.66;6101491;23;20167;-83
2023/03/19 05:12:58;;;;;;;3.87;1.73;;;;;;;9.23;71.53;95402.16;6125935;23;20261;-84
2023/03/19 05:15:23;;;;;;;4.83;1.90;;;;;;;9.16;71.70;95403.69;6100909;23;20171;-83
2023/03/19 05:17:48;;;;;;;5.23;1.67;;;;;;;9.25;71.20;95408.00;6127929;23;20650;-83
2023/03/19 05:20:14;;;;;;;4.03;1.60;;;;;;;9.24;70.86;95403.78;6126294;23;20163;-83
2023/03/19 05:22:40;;;;;;;3.00;1.60;;;;;;;9.30;70.65;95408.41;6126250;23;20231;-83
2023/03/19 05:25:05;;;;;;;2.83;1.90;;;;;;;9.28;71.44;95402.56;6101039;23;20689;-83
2023/03/19 05:27:31;;;;;;;3.60;1.90;;;;;;;9.28;71.69;95410.34;6100726;23;20184;-83
2023/03/19 05:29:56;;;;;;;2.70;1.83;;;;;;;9.18;71.67;95407.75;6101221;23;20163;-83
2023/03/19 05:32:21;;;;;;;4.60;2.00;;;;;;;9.24;71.13;95408.97;6106589;23;20187;-83
2023/03/19 05:34:46;;;;;;;2.93;1.70;;;;;;;9.22;70.86;95413.50;6121245;23;20187;-85
2023/03/19 05:37:12;;;;;;;4.17;1.90;;;;;;;9.16;70.49;95412.28;6103901;23;20183;-85
2023/03/19 05:39:37;;;;;;;2.77;1.53;;;;;;;9.22;70.45;95416.09;6129752;23;20152;-84
2023/03/19 05:42:03;;;;;;;4.50;1.73;;;;;;;9.29;70.51;95412.78;6105108;23;20164;-84
2023/03/19 05:44:28;;;;;;;4.53;1.60;;;;;;;9.33;70.48;95415.91;6128688;23;20551;-84
2023/03/19 05:46:55;;;;;;;4.03;1.80;;;;;;;8.99;71.70;95418.19;6103898;23;20672;-83
2023/03/19 05:49:20;;;;;;;2.90;1.83;;;;;;;9.15;70.80;95415.00;6104782;23;20144;-83
2023/03/19 05:51:46;;;;;;;4.97;1.70;;;;;;;9.25;70.53;95424.38;6112376;23;20159;-85
2023/03/19 05:54:11;;;;;;;3.00;1.87;;;;;;;9.23;70.45;95420.31;6124914;23;20163;-84
2023/03/19 05:56:36;;;;;;;3.27;1.70;;;;;;;9.22;70.24;95416.91;6151569;23;20190;-85
2023/03/19 05:59:02;;;;;;;4.40;2.10;;;;;;;9.21;70.27;95427.41;6128180;23;20171;-85
2023/03/19 06:01:27;;;;;;;2.63;1.87;;;;;;;9.13;69.80;95424.72;6152520;23;20155;-85
2023/03/19 06:03:52;;;;;;;4.10;1.87;;;;;;;9.18;70.37;95428.50;6128036;23;20175;-85
2023/03/19 06:06:17;;;;;;;3.63;2.20;;;;;;;9.11;70.99;95426.63;6124622;23;20630;-84
2023/03/19 06:08:43;;;;;;;2.07;1.70;;;;;;;9.19;70.99;95434.47;6127519;23;20159;-85
2023/03/19 06:11:11;;;;;;;2.87;1.90;;;;;;;9.02;71.37;95441.25;6113523;23;20186;-82
2023/03/19 06:13:37;;;;;;;3.57;2.67;;;;;;;9.09;71.16;95444.88;6101244;23;20179;-82
2023/03/19 06:16:02;;;;;;;9.40;5.73;;;;;;;9.09;71.15;95450.88;6100780;23;20195;-82
2023/03/19 06:18:27;;;;;;;6.23;2.97;;;;;;;9.13;70.96;95453.19;6100428;23;20194;-82
2023/03/19 06:20:53;;;;;;;2.20;1.83;;;;;;;9.09;71.61;95452.66;6100045;23;20239;-83
2023/03/19 06:23:18;;;;;;;5.57;1.80;;;;;;;9.13;72.01;95450.63;6124322;23;20262;-82
2023/03/19 06:25:43;;;;;;;5.10;2.07;;;;;;;9.20;72.31;95447.31;6098709;23;20152;-82
2023/03/19 06:28:09;;;;;;;3.47;2.10;;;;;;;9.21;72.15;95443.78;6099055;23;20180;-82
2023/03/19 06:30:35;;;;;;;3.37;2.10;;;;;;;9.17;72.14;95446.78;6124463;23;20167;-82
2023/03/19 06:33:00;;;;;;;3.40;2.30;;;;;;;9.17;72.42;95452.75;6099679;23;20156;-82
2023/03/19 06:35:25;;;;;;;2.70;2.13;;;;;;;9.19;72.14;95440.50;6098546;23;20156;-82
2023/03/19 06:37:51;;;;;;;3.17;2.10;;;;;;;9.20;72.12;95447.31;6122528;23;20175;-82
2023/03/19 06:40:16;;;;;;;3.83;1.97;;;;;;;9.21;71.79;95442.97;6099659;23;20217;-82
2023/03/19 06:42:46;;;;;;;2.93;2.10;;;;;;;9.33;71.36;95441.81;6126040;23;20203;-82
2023/03/19 06:45:12;;;;;;;4.83;2.27;;;;;;;9.37;71.00;95438.00;6099354;23;20188;-82
2023/03/19 06:47:40;;;;;;;4.67;2.60;;;;;;;9.48;71.21;95439.56;6076019;23;20180;-81
2023/03/19 06:50:05;;;;;;;4.17;2.00;;;;;;;9.53;71.04;95443.34;6075786;23;20630;-83
2023/03/19 06:52:31;;;;;;;3.30;2.10;;;;;;;9.59;70.67;95442.78;6126514;23;20166;-82
2023/03/19 06:54:56;;;;;;;2.70;1.70;;;;;;;9.73;70.27;95448.47;6098847;23;20168;-83
2023/03/19 06:57:21;;;;;;;4.17;2.03;;;;;;;9.72;69.63;95445.06;6099495;23;20557;-83
2023/03/19 06:59:47;;;;;;;5.67;1.57;;;;;;;9.84;69.14;95443.88;6124106;23;20218;-83
2023/03/19 07:02:12;;;;;;;4.20;1.90;;;;;;;9.90;67.93;95456.28;6099630;23;20160;-82
2023/03/19 07:04:37;;;;;;;5.10;3.17;;;;;;;9.91;67.55;95457.91;6098993;23;20524;-82
2023/03/19 07:07:04;;;;;;;4.83;2.43;;;;;;;10.04;67.52;95457.53;6101099;23;20187;-83
2023/03/19 07:09:30;;;;;;;5.07;3.10;;;;;;;10.11;66.24;95452.59;6100690;23;20183;-83
2023/03/19 07:11:55;;;;;;;4.90;3.10;;;;;;;10.26;66.56;95455.53;6125615;23;20159;-82
2023/03/19 07:14:21;;;;;;;3.93;2.87;;;;;;;10.38;66.12;95455.16;6100526;23;20633;-83
2023/03/19 07:16:46;;;;;;;5.80;3.80;;;;;;;10.61;65.17;95459.91;6101096;23;20184;-84
2023/03/19 07:19:11;;;;;;;4.00;2.10;;;;;;;10.80;64.77;95458.91;6100414;23;20168;-83
2023/03/19 07:21:36;;;;;;;3.23;1.80;;;;;;;10.97;63.70;95458.88;6125446;23;20530;-83
2023/03/19 07:24:02;;;;;;;3.17;2.27;;;;;;;11.24;63.51;95462.31;6128785;23;20236;-83
2023/03/19 07:26:27;;;;;;;2.07;1.60;;;;;;;11.48;62.32;95456.41;6124024;23;20148;-84
2023/03/19 07:28:54;;;;;;;3.50;2.27;;;;;;;11.55;61.86;95471.22;6099583;23;20190;-83
2023/03/19 07:31:19;;;;;;;2.70;2.00;;;;;;;11.71;61.26;95470.50;6100283;23;20239;-83
2023/03/19 07:33:47;;;;;;;3.27;2.07;;;;;;;11.93;60.67;95470.91;6100327;23;20163;-83
2023/03/19 07:36:13;;;;;;;3.37;1.80;;;;;;;12.06;60.37;95466.91;6100028;23;20186;-84
2023/03/19 07:38:38;;;;;;;2.63;2.07;;;;;;;12.14;60.09;95469.53;6097138;23;20583;-83
2023/03/19 07:41:03;;;;;;;6.40;2.33;;;;;;;12.15;59.77;95470.34;6124275;23;20144;-83
2023/03/19 07:43:30;;;;;;;4.43;1.97;;;;;;;12.17;59.66;95474.41;6124431;23;20214;-85
2023/03/19 07:45:55;;;;;;;3.30;1.70;;;;;;;12.28;59.24;95478.53;6100707;23;20164;-84
2023/03/19 07:48:20;;;;;;;5.57;2.27;;;;;;;12.32;58.47;95473.81;6100640;23;20207;-83
2023/03/19 07:50:46;;;;;;;3.50;2.20;;;;;;;12.43;58.85;95476.09;6101563;23;20254;-83
2023/03/19 07:53:11;;;;;;;4.93;2.57;;;;;;;12.31;58.86;95466.97;6100516;23;20170;-83
2023/03/19 07:55:36;;;;;;;2.77;2.00;;;;;;;12.21;59.06;95476.72;6099983;23;20159;-84
2023/03/19 07:58:02;;;;;;;2.10;1.90;;;;;;;12.11;59.65;95466.44;6128034;23;20238;-85
2023/03/19 08:00:27;;;;;;;3.17;2.20;;;;;;;12.02;60.05;95470.81;6123223;23;20206;-84
2023/03/19 08:02:52;;;;;;;2.67;1.97;;;;;;;12.14;60.20;95471.31;6124343;23;20186;-84
2023/03/19 08:05:18;;;;;;;2.90;1.60;;;;;;;12.22;59.91;95470.53;6099618;23;20171;-84
2023/03/19 08:07:44;;;;;;;4.20;2.13;;;;;;;12.46;58.99;95481.81;6100147;23;20187;-82
2023/03/19 08:10:10;;;;;;;2.93;1.80;;;;;;;12.31;59.66;95477.38;6100550;23;20164;-84
2023/03/19 08:12:39;;;;;;;3.17;1.50;;;;;;;12.60;58.22;95477.75;6100051;23;20163;-83
2023/03/19 08:15:06;;;;;;;4.83;1.97;;;;;;;12.61;58.32;95476.78;6100309;23;20160;-84
2023/03/19 08:17:36;;;;;;;2.07;1.80;;;;;;;12.70;58.17;95473.19;6126485;23;20180;-82
2023/03/19 08:20:07;;;;;;;4.80;3.80;;;;;;;12.85;58.25;95470.75;6101487;23;20243;-83
2023/03/19 08:22:33;;;;;;;2.30;1.80;;;;;;;13.10;57.64;95481.19;6119635;23;20203;-83
2023/03/19 08:24:58;;;;;;;3.20;1.73;;;;;;;12.71;57.00;95474.00;6097781;23;20180;-84
2023/03/19 08:27:23;;;;;;;2.00;1.57;;;;;;;13.14;55.97;95482.47;6122861;23;20179;-83
2023/03/19 08:29:48;;;;;;;3.70;1.90;;;;;;;13.06;56.87;95478.06;6124016;23;20492;-84
2023/03/19 08:32:14;;;;;;;3.17;2.00;;;;;;;13.19;56.48;95472.38;6099671;23;20168;-83
2023/03/19 08:34:40;;;;;;;6.07;2.27;;;;;;;13.07;56.11;95474.47;6099433;23;20160;-84
2023/03/19 08:37:06;;;;;;;3.93;3.13;;;;;;;13.09;56.52;95469.13;6123131;23;20262;-85
2023/03/19 08:39:31;;;;;;;4.70;2.13;;;;;;;13.12;55.85;95477.41;6123574;23;20199;-84
2023/03/19 08:41:56;;;;;;;5.33;2.20;;;;;;;13.35;55.95;95482.00;6123834;23;20152;-84
2023/03/19 08:44:22;;;;;;;3.20;2.20;;;;;;;12.86;55.76;95488.03;6099606;23;20513;-85
2023/03/19 08:46:47;;;;;;;3.97;2.37;;;;;;;13.09;55.84;95488.19;6098272;23;20188;-84
2023/03/19 08:49:12;;;;;;;3.03;2.73;;;;;;;13.34;55.33;95489.00;6124170;23;20164;-85
2023/03/19 08:51:38;;;;;;;4.73;2.63;;;;;;;13.05;56.05;95482.47;6125429;23;20160;-84
2023/03/19 08:54:03;;;;;;;6.00;3.40;;;;;;;13.16;56.47;95488.31;6126815;23;20163;-83
2023/03/19 08:56:28;;;;;;;4.87;2.23;;;;;;;13.28;56.11;95487.88;6102910;23;20189;-84
2023/03/19 08:59:07;;;;;;;3.37;2.13;;;;;;;13.28;56.74;95497.47;6101802;23;20164;-83
2023/03/19 09:01:32;;;;;;;6.10;3.03;;;;;;;13.41;55.53;95486.53;6126385;23;20578;-83
2023/03/19 09:03:58;;;;;;;2.63;2.43;;;;;;;13.50;55.95;95485.53;6101572;23;20172;-84
2023/03/19 09:06:25;;;;;;;4.90;2.50;;;;;;;13.71;55.73;95482.38;6125227;23;20156;-84
2023/03/19 09:08:51;;;;;;;3.27;2.30;;;;;;;13.76;55.28;95482.69;6101369;23;20626;-84
2023/03/19 09:11:16;;;;;;;5.10;3.57;;;;;;;13.69;55.74;95482.53;6126221;23;20152;-85
2023/03/19 09:13:42;;;;;;;4.57;2.90;;;;;;;13.72;56.05;95489.22;6101506;23;20160;-82
2023/03/19 09:16:07;;;;;;;6.80;4.10;;;;;;;13.69;55.92;95492.97;6124938;23;20627;-83
2023/03/19 09:18:33;;;;;;;3.00;2.27;;;;;;;13.53;56.27;95496.47;6125926;23;20199;-84
2023/03/19 09:20:59;;;;;;;3.57;2.37;;;;;;;13.72;55.50;95499.69;6126678;23;20160;-83
2023/03/19 09:23:25;;;;;;;6.93;3.43;;;;;;;13.80;55.45;95503.06;6100816;23;20248;-82
2023/03/19 09:25:50;;;;;;;6.10;4.90;;;;;;;13.88;55.23;95504.84;6079531;23;20160;-82
2023/03/19 09:28:15;;;;;;;3.60;2.87;;;;;;;13.85;56.10;95502.53;6126631;23;20239;-81
2023/03/19 09:30:42;;;;;;;2.47;2.17;;;;;;;13.23;53.81;95503.19;6100000;23;20243;-81
2023/03/19 09:33:07;;;;;;;2.70;1.90;;;;;;;13.30;53.55;95503.34;6100959;23;20163;-84
2023/03/19 09:35:32;;;;;;;4.97;2.33;;;;;;;13.38;53.08;95497.31;6125407;23;20156;-83
2023/03/19 09:37:59;;;;;;;3.40;1.90;;;;;;;13.23;53.83;95503.19;6126006;23;20167;-83
2023/03/19 09:40:33;;;;;;;3.10;1.97;;;;;;;13.45;54.20;95491.25;6077533;23;20594;-83
2023/03/19 09:43:23;;;;;;;4.23;2.23;;;;;;;13.70;53.73;95494.63;6101068;23;20168;-82
2023/03/19 09:45:49;;;;;;;2.77;2.10;;;;;;;13.62;53.23;95499.88;6100426;23;20710;-83
2023/03/19 09:48:19;;;;;;;3.37;2.17;;;;;;;13.29;53.58;95496.50;6100684;23;20179;-83
2023/03/19 09:50:45;;;;;;;4.10;2.10;;;;;;;13.79;54.13;95495.41;6076676;23;20598;-83
2023/03/19 09:53:22;;;;;;;3.20;1.97;;;;;;;13.92;53.37;95500.09;6077104;23;20151;-83
2023/03/19 09:55:52;;;;;;;1.90;1.80;;;;;;;14.20;51.63;95498.66;6101663;23;20155;-83
2023/03/19 09:58:21;;;;;;;3.33;2.30;;;;;;;14.06;51.80;95496.78;6084710;23;20164;-84
2023/03/19 10:00:49;;;;;;;5.37;2.10;;;;;;;14.15;52.21;95485.31;6120283;23;20216;-85
2023/03/19 10:03:33;;;;;;;4.67;2.10;;;;;;;14.42;51.00;95487.44;6096600;23;20188;-85
2023/03/19 10:06:26;;;;;;;3.43;2.00;;;;;;;14.91;49.79;95487.13;6104297;23;20159;-84
2023/03/19 10:09:03;;;;;;;3.53;2.00;;;;;;;14.46;49.88;95490.53;6129323;23;20618;-84
2023/03/19 10:11:55;;;;;;;4.47;2.43;;;;;;;14.61;48.62;95485.41;6102672;23;20160;-84
2023/03/19 10:14:44;;;;;;;3.80;2.37;;;;;;;14.39;51.04;95482.53;6102416;23;20155;-84
2023/03/19 10:17:15;;;;;;;5.10;2.20;;;;;;;14.64;52.16;95480.63;6102650;23;20179;-84
2023/03/19 10:19:47;;;;;;;4.10;1.90;;;;;;;14.98;51.30;95487.22;6079444;23;20179;-84
2023/03/19 10:22:17;;;;;;;2.40;1.50;;;;;;;15.10;48.08;95482.38;6102939;23;20602;-83
2023/03/19 10:24:44;;;;;;;3.43;2.00;;;;;;;14.97;47.53;95483.00;6090092;23;20187;-83
2023/03/19 10:27:20;;;;;;;3.70;1.67;;;;;;;14.92;48.24;95486.13;6126339;23;20175;-84
2023/03/19 10:29:46;;;;;;;2.57;1.90;;;;;;;15.14;47.21;95479.25;6101892;23;20230;-84
2023/03/19 10:32:19;;;;;;;3.10;1.77;;;;;;;15.13;45.81;95482.06;6101864;23;20610;-82
2023/03/19 10:34:49;;;;;;;4.60;1.93;;;;;;;15.69;45.24;95485.94;6127281;23;20553;-84
2023/03/19 10:37:22;;;;;;;4.43;1.90;;;;;;;15.76;44.93;95472.94;6103201;23;20184;-85
2023/03/19 10:39:49;;;;;;;4.27;1.70;;;;;;;16.00;44.61;95477.09;6128632;23;20160;-84
2023/03/19 10:42:40;;;;;;;4.07;1.87;;;;;;;16.17;43.79;95470.63;6102569;23;20171;-83
2023/03/19 10:45:45;;;;;;;2.43;1.87;;;;;;;15.82;44.09;95474.84;6101739;23;20169;-84
2023/03/19 10:48:16;;;;;;;3.33;1.67;;;;;;;15.69;44.02;95475.47;6064879;23;20181;-84
2023/03/19 10:50:58;;;;;;;3.37;1.97;;;;;;;15.67;44.19;95468.78;6042347;23;20161;-83
2023/03/19 10:53:34;;;;;;;6.87;1.80;;;;;;;15.63;44.05;95470.94;6045316;23;20483;-83
2023/03/19 10:56:02;;;;;;;2.27;1.57;;;;;;;15.95;43.38;95469.75;6044450;23;20165;-84
2023/03/19 10:58:30;;;;;;;3.63;1.87;;;;;;;15.94;43.78;95468.13;6040138;23;20212;-83
2023/03/19 11:00:58;;;;;;;5.37;2.10;;;;;;;15.69;44.09;95466.78;6040879;23;20157;-85
2023/03/19 11:03:32;;;;;;;3.10;2.00;;;;;;;15.50;45.09;95462.88;6043971;23;20211;-85
2023/03/19 11:06:17;;;;;;;2.77;1.77;;;;;;;15.62;44.30;95458.84;6040610;23;20208;-86
2023/03/19 11:08:49;;;;;;;2.97;1.80;;;;;;;15.30;45.23;95462.59;6042707;23;20153;-84
2023/03/19 11:11:31;;;;;;;4.20;2.10;;;;;;;15.18;46.13;95470.03;6043157;23;20177;-85
2023/03/19 11:13:56;;;;;;;2.67;1.80;;;;;;;14.87;45.63;95469.34;6041450;23;20221;-83
2023/03/19 11:16:22;;;;;;;2.83;2.00;;;;;;;14.71;46.39;95467.69;6041175;23;20161;-84
2023/03/19 11:18:48;;;;;;;5.13;1.80;;;;;;;14.52;47.37;95473.38;6091054;23;20172;-85
2023/03/19 11:21:29;;;;;;;4.57;2.20;;;;;;;14.48;47.77;95469.47;6101064;23;20160;-84
2023/03/19 11:24:02;;;;;;;2.93;1.90;;;;;;;14.36;48.88;95469.84;6124416;23;20197;-86
2023/03/19 11:26:28;;;;;;;2.97;1.80;;;;;;;14.10;51.95;95474.53;6123568;23;20251;-86
2023/03/19 11:28:56;;;;;;;9.80;2.33;;;;;;;13.99;51.62;95474.94;6124925;23;20163;-84
2023/03/19 11:31:32;;;;;;;2.67;1.80;;;;;;;13.65;54.50;95476.03;6100226;23;20175;-84
2023/03/19 11:34:16;;;;;;;3.93;2.00;;;;;;;13.46;57.59;95481.63;6100484;23;20152;-85
2023/03/19 11:37:04;;;;;;;6.33;2.17;;;;;;;13.20;59.98;95474.84;6124281;23;20191;-85